Time;durP1;ratioP1;P1;durP2;ratioP2;P2;SDS_P1;SDS_P2;PMS_P1;PMS_P2;Temp;Humidity;BMP_temperature;BMP_pressure;BME280_temperature;BME280_humidity;BME280_pressure;Samples;Min_cycle;Max_cycle;Signal;HPM_P1;HPM_P2
2023/10/15 00:01:44;;;;;;;17.17;13.70;;;7.40;92.40;;;;;;5032493;28;20197;-87
2023/10/15 00:04:12;;;;;;;14.67;13.20;;;7.40;92.30;;;;;;5033935;28;20169;-88
2023/10/15 00:06:38;;;;;;;15.10;13.87;;;7.40;92.20;;;;;;5032682;28;20649;-88
2023/10/15 00:09:04;;;;;;;15.30;14.10;;;7.40;92.20;;;;;;5034158;28;20175;-87
2023/10/15 00:11:30;;;;;;;14.80;13.50;;;7.30;91.80;;;;;;5033121;28;20176;-89
2023/10/15 00:13:55;;;;;;;14.67;13.57;;;7.40;91.70;;;;;;5032694;28;20594;-89
2023/10/15 00:16:22;;;;;;;15.50;14.10;;;7.40;91.60;;;;;;5032539;28;20295;-89
2023/10/15 00:18:48;;;;;;;14.70;13.43;;;7.40;91.60;;;;;;5032347;28;20180;-90
2023/10/15 00:21:14;;;;;;;18.53;14.07;;;7.30;91.40;;;;;;5032340;28;20196;-88
2023/10/15 00:23:41;;;;;;;16.17;14.43;;;7.40;91.40;;;;;;5033978;28;20160;-89
2023/10/15 00:26:14;;;;;;;14.90;13.90;;;7.40;91.60;;;;;;5033429;28;20319;-88
2023/10/15 00:28:40;;;;;;;17.53;14.37;;;7.50;91.60;;;;;;5032468;28;20169;-88
2023/10/15 00:31:10;;;;;;;14.93;13.47;;;7.50;91.60;;;;;;5032359;28;20176;-87
2023/10/15 00:33:37;;;;;;;16.37;14.70;;;7.50;91.70;;;;;;5033565;28;20160;-87
2023/10/15 00:36:06;;;;;;;15.80;14.23;;;7.40;91.80;;;;;;5033245;28;20283;-89
2023/10/15 00:38:36;;;;;;;16.90;15.37;;;7.40;91.90;;;;;;5032170;28;20675;-89
2023/10/15 00:41:07;;;;;;;18.00;14.80;;;7.30;92.00;;;;;;5032141;28;20246;-89
2023/10/15 00:43:34;;;;;;;15.77;14.13;;;7.30;92.00;;;;;;5032119;28;20165;-89
2023/10/15 00:46:03;;;;;;;14.97;13.60;;;7.30;91.90;;;;;;5031972;28;20368;-88
2023/10/15 00:48:35;;;;;;;15.77;13.47;;;7.30;91.80;;;;;;5032038;28;20180;-89
2023/10/15 00:51:11;;;;;;;24.37;22.77;;;7.30;91.70;;;;;;5032431;28;20227;-90
2023/10/15 00:53:48;;;;;;;25.00;23.00;;;7.30;91.70;;;;;;5032480;28;20263;-89
2023/10/15 00:56:14;;;;;;;25.83;24.07;;;7.20;91.70;;;;;;5032648;28;20203;-88
2023/10/15 00:58:53;;;;;;;26.90;24.97;;;7.00;91.40;;;;;;5032603;28;20203;-89
2023/10/15 01:01:22;;;;;;;27.33;25.03;;;7.00;91.50;;;;;;5032084;28;20200;-89
2023/10/15 01:03:59;;;;;;;27.10;24.97;;;7.00;91.60;;;;;;5032382;28;20223;-89
2023/10/15 01:08:59;;;;;;;27.87;25.23;;;7.00;91.60;;;;;;5033283;28;20501;-91
2023/10/15 01:11:28;;;;;;;26.77;24.87;;;7.00;91.60;;;;;;5033159;28;20173;-89
2023/10/15 01:13:56;;;;;;;26.47;24.30;;;7.00;91.50;;;;;;5034569;28;20177;-89
2023/10/15 01:16:22;;;;;;;27.50;24.93;;;7.10;91.60;;;;;;5037613;28;20583;-88
2023/10/15 01:21:43;;;;;;;26.43;24.13;;;7.20;91.90;;;;;;5037557;28;20204;-89
2023/10/15 01:24:08;;;;;;;27.83;25.07;;;7.30;91.90;;;;;;5037330;28;20148;-88
2023/10/15 01:26:36;;;;;;;22.90;21.00;;;7.30;91.70;;;;;;5035984;28;20264;-90
2023/10/15 01:29:05;;;;;;;15.37;13.93;;;7.30;91.90;;;;;;5035672;28;20179;-88
2023/10/15 01:31:38;;;;;;;16.43;14.73;;;7.30;92.10;;;;;;5036100;28;20181;-88
2023/10/15 01:34:04;;;;;;;27.63;25.67;;;7.30;92.20;;;;;;5037023;28;20157;-89
2023/10/15 01:36:30;;;;;;;28.67;26.60;;;7.20;92.10;;;;;;5037127;28;20198;-89
2023/10/15 01:39:09;;;;;;;28.10;26.00;;;7.10;91.90;;;;;;5037106;28;20667;-89
2023/10/15 01:41:39;;;;;;;15.27;13.97;;;7.00;91.60;;;;;;5036997;28;20184;-89
2023/10/15 01:44:08;;;;;;;14.70;13.20;;;7.10;91.00;;;;;;5036256;28;20173;-89
2023/10/15 01:46:44;;;;;;;17.40;13.67;;;7.20;91.20;;;;;;5036399;28;20185;-89
2023/10/15 01:49:15;;;;;;;15.83;14.53;;;7.20;91.20;;;;;;5035470;28;20655;-90
2023/10/15 01:51:40;;;;;;;15.20;14.10;;;7.30;91.30;;;;;;5036954;28;20161;-88
2023/10/15 01:54:09;;;;;;;16.80;15.03;;;7.20;91.30;;;;;;5035704;28;20196;-89
2023/10/15 01:56:36;;;;;;;14.67;13.80;;;7.30;91.30;;;;;;5035832;28;20259;-88
2023/10/15 01:59:08;;;;;;;15.17;14.00;;;7.20;90.60;;;;;;5035966;28;20176;-89
2023/10/15 02:01:37;;;;;;;16.77;14.97;;;7.20;90.60;;;;;;5035834;28;20283;-89
2023/10/15 02:04:06;;;;;;;20.20;14.80;;;7.30;91.10;;;;;;5036958;28;20175;-89
2023/10/15 02:06:42;;;;;;;14.93;13.43;;;7.30;91.40;;;;;;5035625;28;20246;-89
2023/10/15 02:09:12;;;;;;;17.40;14.73;;;7.30;91.70;;;;;;5035718;28;20161;-89
2023/10/15 02:11:47;;;;;;;15.93;14.43;;;7.20;91.60;;;;;;5035417;28;20187;-89
2023/10/15 02:14:20;;;;;;;15.93;14.47;;;7.10;91.50;;;;;;5036356;28;20199;-89
2023/10/15 02:16:49;;;;;;;16.50;15.10;;;7.20;91.80;;;;;;5035432;28;20207;-89
2023/10/15 02:19:29;;;;;;;16.10;14.67;;;7.10;91.50;;;;;;5034812;28;20192;-89
2023/10/15 02:21:56;;;;;;;15.63;14.33;;;7.10;91.70;;;;;;5034854;28;20199;-88
2023/10/15 02:24:23;;;;;;;16.30;15.00;;;7.10;91.40;;;;;;5035689;28;20185;-88
2023/10/15 02:26:48;;;;;;;15.23;14.07;;;7.20;91.60;;;;;;5034697;28;20610;-88
2023/10/15 02:32:06;;;;;;;16.53;15.30;;;7.10;91.20;;;;;;5036155;28;20625;-90
2023/10/15 02:34:32;;;;;;;16.97;15.33;;;7.00;90.50;;;;;;5034602;28;20288;-90
2023/10/15 02:37:03;;;;;;;15.67;14.43;;;7.10;90.80;;;;;;5034553;28;20218;-89
2023/10/15 02:39:36;;;;;;;28.33;25.90;;;7.20;90.80;;;;;;5034521;28;20645;-87
2023/10/15 02:42:02;;;;;;;26.60;24.80;;;7.10;90.60;;;;;;5034508;28;20204;-90
2023/10/15 02:44:32;;;;;;;27.57;25.20;;;7.00;90.70;;;;;;5035872;28;20196;-89
2023/10/15 02:47:07;;;;;;;26.30;24.23;;;7.00;91.00;;;;;;5034706;28;20185;-90
2023/10/15 02:52:23;;;;;;;26.37;24.27;;;6.90;91.10;;;;;;5036377;28;20246;-89
2023/10/15 02:54:49;;;;;;;26.00;24.20;;;7.00;91.40;;;;;;5036530;28;20670;-89
2023/10/15 02:57:15;;;;;;;25.53;23.60;;;7.00;91.10;;;;;;5035925;28;20648;-89
2023/10/15 02:59:51;;;;;;;25.87;24.13;;;7.00;91.20;;;;;;5035921;28;20173;-90
2023/10/15 03:02:20;;;;;;;24.50;22.80;;;7.00;91.20;;;;;;5034390;28;20671;-88
2023/10/15 03:04:55;;;;;;;25.67;23.90;;;7.10;91.60;;;;;;5034227;28;20196;-88
2023/10/15 03:07:30;;;;;;;25.07;22.47;;;7.10;92.00;;;;;;5034187;28;20214;-90
2023/10/15 03:09:57;;;;;;;25.87;24.10;;;7.10;92.10;;;;;;5034491;28;20169;-90
2023/10/15 03:12:23;;;;;;;30.63;27.90;;;7.10;92.50;;;;;;5034018;28;20275;-90
2023/10/15 03:14:49;;;;;;;34.40;31.90;;;7.20;92.50;;;;;;5035299;28;20561;-90
2023/10/15 03:17:24;;;;;;;30.03;28.03;;;7.20;92.50;;;;;;5035610;28;20179;-90
2023/10/15 03:19:52;;;;;;;29.27;27.57;;;6.90;91.00;;;;;;5035778;28;20239;-90
2023/10/15 03:22:17;;;;;;;14.27;13.07;;;6.80;91.30;;;;;;5035560;28;20193;-89
2023/10/15 03:24:44;;;;;;;15.60;14.43;;;6.70;91.40;;;;;;5034477;28;20569;-89
2023/10/15 03:27:09;;;;;;;15.80;14.50;;;6.80;91.40;;;;;;5034571;28;20173;-89
2023/10/15 03:29:35;;;;;;;27.60;25.40;;;6.70;91.10;;;;;;5035575;28;20197;-89
2023/10/15 03:32:09;;;;;;;29.17;27.07;;;6.70;91.20;;;;;;5033708;28;20184;-90
2023/10/15 03:34:35;;;;;;;14.90;13.40;;;6.90;91.60;;;;;;5035179;28;20192;-88
2023/10/15 03:37:02;;;;;;;15.33;14.03;;;6.80;91.90;;;;;;5033394;28;20267;-89
2023/10/15 03:44:44;;;;;;;15.70;14.23;;;6.90;92.60;;;;;;5035517;28;20596;-89
2023/10/15 03:47:15;;;;;;;15.37;13.73;;;6.80;92.50;;;;;;5033864;28;20283;-90
2023/10/15 03:49:40;;;;;;;15.53;14.33;;;6.80;92.40;;;;;;5034294;28;20175;-90
2023/10/15 03:52:14;;;;;;;15.73;14.63;;;6.70;92.30;;;;;;5035079;28;20621;-89
2023/10/15 03:54:47;;;;;;;15.80;14.70;;;6.70;92.40;;;;;;5035060;28;20188;-90
2023/10/15 03:57:17;;;;;;;15.30;14.17;;;6.60;92.00;;;;;;5033794;28;20184;-89
2023/10/15 03:59:44;;;;;;;13.60;12.63;;;6.70;92.00;;;;;;5033170;28;20244;-90
2023/10/15 04:02:23;;;;;;;14.90;13.60;;;6.70;92.20;;;;;;5033346;28;20200;-90
2023/10/15 04:05:08;;;;;;;16.40;14.33;;;6.70;92.10;;;;;;5033593;28;20588;-92
2023/10/15 04:07:39;;;;;;;15.37;13.83;;;6.70;92.20;;;;;;5033252;28;20599;-90
2023/10/15 04:10:08;;;;;;;15.50;14.17;;;6.70;92.00;;;;;;5034474;28;20150;-90
2023/10/15 04:12:35;;;;;;;16.20;15.00;;;6.80;92.20;;;;;;5033327;28;20226;-91
2023/10/15 04:15:02;;;;;;;17.00;15.20;;;6.80;92.10;;;;;;5034571;28;20192;-90
2023/10/15 04:17:29;;;;;;;15.63;14.67;;;6.70;92.10;;;;;;5033175;28;20177;-90
2023/10/15 04:19:55;;;;;;;17.73;15.40;;;6.70;91.80;;;;;;5032909;28;20589;-90
2023/10/15 04:22:21;;;;;;;16.63;15.17;;;6.70;91.80;;;;;;5033054;28;20255;-90
2023/10/15 04:24:47;;;;;;;15.90;14.67;;;6.60;91.70;;;;;;5033046;28;20189;-91
2023/10/15 04:27:18;;;;;;;15.53;14.40;;;6.60;91.60;;;;;;5033198;28;20176;-89
2023/10/15 04:29:52;;;;;;;15.10;14.00;;;6.70;91.90;;;;;;5033412;28;20234;-89
2023/10/15 04:34:53;;;;;;;27.37;25.30;;;6.60;91.70;;;;;;5034884;28;20282;-89
2023/10/15 04:37:20;;;;;;;24.80;23.20;;;6.60;91.70;;;;;;5033143;28;20215;-89
2023/10/15 04:39:55;;;;;;;26.20;24.37;;;6.60;92.00;;;;;;5034306;28;20177;-89
2023/10/15 04:42:21;;;;;;;26.03;24.23;;;6.60;92.20;;;;;;5032659;28;20204;-89
2023/10/15 04:44:50;;;;;;;25.03;23.10;;;6.60;92.40;;;;;;5032717;28;20192;-89
2023/10/15 04:47:25;;;;;;;25.57;23.73;;;6.50;92.60;;;;;;5033824;28;20184;-90
2023/10/15 04:49:56;;;;;;;24.00;22.40;;;6.50;92.90;;;;;;5032822;28;20175;-90
2023/10/15 04:52:22;;;;;;;26.90;24.90;;;6.50;93.00;;;;;;5034352;28;20292;-89
2023/10/15 04:54:48;;;;;;;27.50;25.30;;;6.60;93.00;;;;;;5032921;28;20708;-88
2023/10/15 04:57:13;;;;;;;28.83;27.13;;;6.60;92.90;;;;;;5033866;28;20184;-91
2023/10/15 04:59:39;;;;;;;29.40;27.30;;;6.60;92.90;;;;;;5032655;28;20267;-88
2023/10/15 05:02:07;;;;;;;28.90;27.00;;;6.50;92.60;;;;;;5032709;28;20205;-89
2023/10/15 05:04:33;;;;;;;30.03;27.53;;;6.60;92.70;;;;;;5033728;28;20196;-88
2023/10/15 05:06:58;;;;;;;31.80;29.23;;;6.60;92.60;;;;;;5032436;28;20176;-90
2023/10/15 05:09:24;;;;;;;29.47;27.43;;;6.60;92.50;;;;;;5032932;28;20215;-91
2023/10/15 05:11:50;;;;;;;16.13;14.73;;;6.70;92.60;;;;;;5033186;28;20545;-92
2023/10/15 05:14:17;;;;;;;16.30;15.10;;;6.70;92.50;;;;;;5032365;28;20637;-87
2023/10/15 05:16:46;;;;;;;27.70;25.07;;;6.70;92.50;;;;;;5032560;28;20214;-89
2023/10/15 05:19:17;;;;;;;27.73;25.63;;;6.70;92.50;;;;;;5033190;28;20323;-89
2023/10/15 05:21:44;;;;;;;27.03;25.07;;;6.80;92.50;;;;;;5032673;28;20207;-88
2023/10/15 05:24:09;;;;;;;17.10;15.70;;;6.80;92.40;;;;;;5034196;28;20291;-88
2023/10/15 05:26:35;;;;;;;17.23;15.93;;;6.80;92.30;;;;;;5034073;28;20660;-90
2023/10/15 05:29:00;;;;;;;25.27;23.13;;;6.80;92.30;;;;;;5034207;28;20180;-90
2023/10/15 05:31:26;;;;;;;25.90;23.90;;;6.80;92.30;;;;;;5033216;28;20176;-89
2023/10/15 05:33:52;;;;;;;17.53;15.90;;;6.80;92.30;;;;;;5033366;28;20203;-90
2023/10/15 05:36:18;;;;;;;16.10;14.90;;;6.90;92.50;;;;;;5034046;28;20201;-89
2023/10/15 05:38:43;;;;;;;17.97;16.37;;;6.90;92.20;;;;;;5034171;28;20177;-89
2023/10/15 05:41:09;;;;;;;17.73;16.53;;;6.80;92.00;;;;;;5032978;28;20578;-91
2023/10/15 05:43:36;;;;;;;17.23;15.60;;;6.80;92.00;;;;;;5033136;28;20177;-90
2023/10/15 05:46:01;;;;;;;17.03;15.63;;;6.80;92.20;;;;;;5033432;28;20268;-91
2023/10/15 05:48:27;;;;;;;16.77;15.57;;;6.80;92.30;;;;;;5032843;28;20203;-90
2023/10/15 05:50:54;;;;;;;18.03;16.30;;;6.80;92.40;;;;;;5032402;28;20231;-89
2023/10/15 05:53:19;;;;;;;16.97;15.23;;;6.80;92.30;;;;;;5032393;28;20180;-90
2023/10/15 05:55:45;;;;;;;17.90;16.40;;;6.80;92.30;;;;;;5032284;28;20201;-90
2023/10/15 05:58:11;;;;;;;18.10;16.57;;;6.90;92.10;;;;;;5033603;28;20200;-91
2023/10/15 06:00:39;;;;;;;16.03;14.87;;;6.90;91.70;;;;;;5035525;28;20235;-89
2023/10/15 06:03:07;;;;;;;15.70;14.63;;;6.80;91.60;;;;;;5036220;28;20702;-88
2023/10/15 06:05:33;;;;;;;16.67;15.37;;;6.70;91.90;;;;;;5036131;28;20201;-91
2023/10/15 06:07:58;;;;;;;16.10;14.97;;;6.70;92.00;;;;;;5036503;28;20180;-90
2023/10/15 06:10:24;;;;;;;15.70;14.50;;;6.60;92.10;;;;;;5035991;28;20187;-90
2023/10/15 06:12:49;;;;;;;14.97;14.07;;;6.60;92.20;;;;;;5036325;28;20207;-91
2023/10/15 06:15:15;;;;;;;16.90;15.60;;;6.50;92.20;;;;;;5035903;28;20211;-90
2023/10/15 06:17:42;;;;;;;16.03;14.73;;;6.50;92.20;;;;;;5035422;28;20185;-89
2023/10/15 06:20:14;;;;;;;15.27;14.27;;;6.50;92.30;;;;;;5036813;28;20177;-89
2023/10/15 06:22:44;;;;;;;16.30;15.07;;;6.40;92.20;;;;;;5035408;28;20570;-88
2023/10/15 06:25:12;;;;;;;14.67;13.47;;;6.50;92.30;;;;;;5035458;28;20688;-89
2023/10/15 06:27:38;;;;;;;15.07;14.17;;;6.50;92.30;;;;;;5036129;28;20664;-89
2023/10/15 06:30:05;;;;;;;15.47;14.47;;;6.60;92.40;;;;;;5034999;28;20222;-89
2023/10/15 06:32:32;;;;;;;17.10;15.73;;;6.60;92.50;;;;;;5035317;28;20180;-89
2023/10/15 06:34:57;;;;;;;26.13;23.90;;;6.70;92.60;;;;;;5035525;28;20201;-91
2023/10/15 06:37:23;;;;;;;25.50;23.37;;;6.40;92.50;;;;;;5035486;28;20564;-90
2023/10/15 06:39:49;;;;;;;26.67;24.93;;;6.30;92.80;;;;;;5035962;28;20227;-89
2023/10/15 06:42:14;;;;;;;27.40;24.97;;;6.40;92.90;;;;;;5035586;28;20625;-88
2023/10/15 06:44:40;;;;;;;26.00;24.27;;;6.40;93.00;;;;;;5035393;28;20196;-89
2023/10/15 06:47:05;;;;;;;27.17;25.20;;;6.50;93.10;;;;;;5036107;28;20590;-89
2023/10/15 06:49:31;;;;;;;25.77;24.17;;;6.50;93.10;;;;;;5037032;28;20191;-88
2023/10/15 06:51:57;;;;;;;25.10;23.07;;;6.40;93.10;;;;;;5035926;28;20173;-88
2023/10/15 06:54:22;;;;;;;25.73;24.03;;;6.50;93.20;;;;;;5034952;28;20193;-89
2023/10/15 06:56:48;;;;;;;26.13;24.03;;;6.50;93.30;;;;;;5036099;28;20667;-90
2023/10/15 06:59:17;;;;;;;27.73;25.13;;;6.50;93.30;;;;;;5035764;28;20169;-92
2023/10/15 07:01:43;;;;;;;27.40;24.90;;;6.50;93.40;;;;;;5034278;28;20261;-93
2023/10/15 07:04:11;;;;;;;29.23;27.20;;;6.60;93.50;;;;;;5034462;28;20622;-92
2023/10/15 07:06:37;;;;;;;30.87;29.07;;;6.50;93.40;;;;;;5034794;28;20169;-92
2023/10/15 07:09:03;;;;;;;19.20;17.80;;;6.40;93.30;;;;;;5034315;28;20177;-91
2023/10/15 07:11:28;;;;;;;19.03;17.37;;;6.50;92.90;;;;;;5033180;28;20177;-91
2023/10/15 07:13:54;;;;;;;24.17;21.70;;;6.50;92.80;;;;;;5034075;28;20169;-91
2023/10/15 07:16:20;;;;;;;21.77;20.10;;;6.60;92.30;;;;;;5035328;28;20196;-90
2023/10/15 07:18:46;;;;;;;24.43;22.60;;;6.60;92.10;;;;;;5035814;28;20172;-91
2023/10/15 07:21:11;;;;;;;16.63;15.13;;;6.60;92.10;;;;;;5034209;28;20208;-90
2023/10/15 07:23:37;;;;;;;18.80;17.17;;;6.60;92.20;;;;;;5034925;28;20180;-91
2023/10/15 07:26:03;;;;;;;26.43;24.60;;;6.70;92.50;;;;;;5034121;28;20203;-88
2023/10/15 07:28:29;;;;;;;28.17;25.97;;;6.70;92.60;;;;;;5034338;28;20181;-89
2023/10/15 07:30:55;;;;;;;28.50;26.80;;;6.60;92.70;;;;;;5036303;28;20199;-89
2023/10/15 07:33:21;;;;;;;16.77;15.77;;;6.50;92.30;;;;;;5034564;28;20181;-90
2023/10/15 07:35:48;;;;;;;17.67;16.47;;;6.60;92.50;;;;;;5034201;28;20200;-89
2023/10/15 07:38:14;;;;;;;29.03;27.13;;;6.60;92.40;;;;;;5034832;28;20212;-88
2023/10/15 07:40:40;;;;;;;26.07;24.37;;;6.60;92.40;;;;;;5034689;28;20181;-89
2023/10/15 07:43:08;;;;;;;27.10;25.43;;;6.50;92.30;;;;;;5034760;28;20172;-89
2023/10/15 07:45:35;;;;;;;16.60;15.30;;;6.50;92.40;;;;;;5036443;28;20573;-89
2023/10/15 07:48:02;;;;;;;18.17;17.03;;;6.50;92.40;;;;;;5036639;28;20165;-90
2023/10/15 07:50:34;;;;;;;25.03;23.53;;;6.40;92.30;;;;;;5035191;28;20180;-87
2023/10/15 07:53:00;;;;;;;25.47;23.93;;;6.40;92.20;;;;;;5036626;28;20200;-88
2023/10/15 07:55:26;;;;;;;16.83;15.57;;;6.40;92.10;;;;;;5035250;28;20737;-89
2023/10/15 07:57:52;;;;;;;15.93;14.73;;;6.50;92.40;;;;;;5036619;28;20180;-88
2023/10/15 08:00:30;;;;;;;16.17;15.17;;;6.70;92.60;;;;;;5035260;28;20180;-90
2023/10/15 08:03:00;;;;;;;16.83;15.77;;;6.60;92.30;;;;;;5034770;28;20200;-89
2023/10/15 08:05:26;;;;;;;15.43;14.43;;;6.70;92.60;;;;;;5033536;28;20193;-90
2023/10/15 08:07:52;;;;;;;17.63;16.43;;;6.70;92.80;;;;;;5033335;28;20269;-89
2023/10/15 08:10:20;;;;;;;15.23;13.97;;;6.60;92.70;;;;;;5033542;28;20254;-90
2023/10/15 08:12:50;;;;;;;16.70;15.47;;;6.70;92.70;;;;;;5033434;28;20714;-90
2023/10/15 08:15:17;;;;;;;15.93;14.97;;;6.80;92.80;;;;;;5033751;28;20207;-90
2023/10/15 08:17:42;;;;;;;18.23;16.90;;;6.80;92.60;;;;;;5033385;28;20185;-91
2023/10/15 08:20:09;;;;;;;15.67;14.67;;;6.70;92.60;;;;;;5033328;28;20187;-89
2023/10/15 08:22:43;;;;;;;17.47;16.30;;;6.70;92.40;;;;;;5032873;28;20235;-91
2023/10/15 08:25:21;;;;;;;23.37;21.87;;;6.60;92.50;;;;;;5034553;28;20664;-91
2023/10/15 08:27:47;;;;;;;26.07;24.07;;;6.70;92.60;;;;;;5033065;28;20172;-89
2023/10/15 08:30:13;;;;;;;26.33;24.47;;;6.60;92.60;;;;;;5033397;28;20550;-92
2023/10/15 08:32:40;;;;;;;17.00;15.90;;;6.70;92.80;;;;;;5034196;28;20259;-90
2023/10/15 08:35:06;;;;;;;17.20;16.00;;;6.60;92.90;;;;;;5032977;28;20200;-90
2023/10/15 08:37:35;;;;;;;24.40;22.90;;;6.60;92.80;;;;;;5032526;28;20180;-91
2023/10/15 08:40:06;;;;;;;25.73;24.03;;;6.50;92.90;;;;;;5032922;28;20227;-90
2023/10/15 08:42:41;;;;;;;24.77;23.20;;;6.60;93.10;;;;;;5032499;28;20291;-91
2023/10/15 08:45:08;;;;;;;18.27;16.87;;;6.70;93.20;;;;;;5032722;28;20259;-90
2023/10/15 08:47:34;;;;;;;18.63;17.20;;;6.70;93.20;;;;;;5034397;28;20177;-91
2023/10/15 08:50:00;;;;;;;25.60;24.00;;;6.80;93.40;;;;;;5032301;28;20184;-91
2023/10/15 08:52:27;;;;;;;22.63;21.00;;;6.90;93.20;;;;;;5033332;28;20243;-88
2023/10/15 08:54:54;;;;;;;25.30;23.30;;;7.00;93.00;;;;;;5031926;28;20205;-89
2023/10/15 08:57:21;;;;;;;25.57;23.87;;;7.30;93.10;;;;;;5031951;28;20180;-90
2023/10/15 08:59:48;;;;;;;26.97;25.03;;;7.50;92.90;;;;;;5032058;28;20190;-88
2023/10/15 09:02:15;;;;;;;31.43;29.33;;;7.30;92.40;;;;;;5031985;28;20211;-90
2023/10/15 09:04:44;;;;;;;29.97;28.00;;;7.20;92.30;;;;;;5032128;28;20302;-89
2023/10/15 09:07:12;;;;;;;20.40;18.70;;;7.00;92.40;;;;;;5031886;28;20203;-90
2023/10/15 09:09:38;;;;;;;18.67;17.33;;;7.00;92.50;;;;;;5031889;28;20663;-90
2023/10/15 09:12:06;;;;;;;19.53;18.23;;;7.10;92.70;;;;;;5033049;28;20544;-90
2023/10/15 09:14:45;;;;;;;30.63;28.40;;;7.20;92.90;;;;;;5031846;28;20296;-89
2023/10/15 09:17:11;;;;;;;31.13;28.50;;;7.30;92.90;;;;;;5032448;28;20185;-92
2023/10/15 09:19:38;;;;;;;19.63;18.43;;;7.20;92.60;;;;;;5031950;28;20671;-89
2023/10/15 09:22:08;;;;;;;19.00;17.47;;;7.20;92.70;;;;;;5031569;28;20706;-91
2023/10/15 09:24:36;;;;;;;27.53;25.63;;;7.20;92.50;;;;;;5033338;28;20195;-89
2023/10/15 09:27:02;;;;;;;28.17;25.83;;;7.00;92.30;;;;;;5031837;28;20573;-89
2023/10/15 09:29:30;;;;;;;28.97;26.97;;;7.00;92.20;;;;;;5031903;28;20177;-88
2023/10/15 09:31:56;;;;;;;16.23;15.17;;;7.10;92.30;;;;;;5033093;28;20188;-90
2023/10/15 09:34:26;;;;;;;18.20;16.70;;;7.00;92.10;;;;;;5034794;28;20224;-90
2023/10/15 09:36:51;;;;;;;18.37;16.70;;;7.10;92.40;;;;;;5035952;28;20185;-90
2023/10/15 09:39:17;;;;;;;18.53;17.23;;;7.20;92.40;;;;;;5035680;28;20184;-90
2023/10/15 09:41:42;;;;;;;19.27;17.70;;;7.10;92.40;;;;;;5035638;28;20215;-89
2023/10/15 09:44:15;;;;;;;19.73;17.90;;;7.10;92.30;;;;;;5036934;28;20231;-90
2023/10/15 09:46:43;;;;;;;19.57;17.77;;;7.30;92.30;;;;;;5035564;28;20663;-89
2023/10/15 09:49:10;;;;;;;19.63;17.73;;;7.30;92.00;;;;;;5039367;28;20180;-90
2023/10/15 09:51:37;;;;;;;18.50;17.00;;;7.50;92.10;;;;;;5037722;28;20641;-88
2023/10/15 09:54:03;;;;;;;18.50;17.20;;;7.70;92.20;;;;;;5036518;28;20180;-88
2023/10/15 09:56:30;;;;;;;19.90;17.83;;;7.80;91.70;;;;;;5036389;28;20185;-88
2023/10/15 09:58:56;;;;;;;20.67;18.60;;;7.70;91.40;;;;;;5036267;28;20672;-89
2023/10/15 10:01:27;;;;;;;19.23;17.63;;;7.60;91.40;;;;;;5036439;28;20251;-88
2023/10/15 10:04:04;;;;;;;17.70;16.37;;;7.50;91.20;;;;;;5038110;28;20161;-90
2023/10/15 10:06:48;;;;;;;18.10;16.47;;;7.40;91.20;;;;;;5036250;28;20171;-90
2023/10/15 10:09:51;;;;;;;18.50;17.03;;;7.50;91.70;;;;;;5035933;28;20183;-89
2023/10/15 10:12:26;;;;;;;18.00;16.70;;;7.50;91.70;;;;;;5037045;28;20173;-88
2023/10/15 10:15:14;;;;;;;21.67;19.97;;;7.40;91.70;;;;;;5038816;28;20266;-88
2023/10/15 10:17:40;;;;;;;19.83;17.90;;;7.60;91.80;;;;;;5039084;28;20184;-88
2023/10/15 10:20:11;;;;;;;19.97;18.20;;;7.80;91.70;;;;;;5037827;28;20656;-88
2023/10/15 10:22:37;;;;;;;18.50;16.90;;;7.60;91.00;;;;;;5037281;28;20216;-88
2023/10/15 10:25:03;;;;;;;25.60;23.60;;;7.70;91.20;;;;;;5036193;28;20579;-90
2023/10/15 10:27:43;;;;;;;23.57;21.43;;;7.50;89.20;;;;;;5035496;28;20179;-90
2023/10/15 10:30:28;;;;;;;23.33;21.57;;;7.60;89.90;;;;;;5035555;28;20168;-90
2023/10/15 10:32:57;;;;;;;23.43;21.67;;;7.60;89.30;;;;;;5036051;28;20169;-89
2023/10/15 10:35:26;;;;;;;25.63;23.60;;;7.80;90.20;;;;;;5034934;28;20205;-89
2023/10/15 10:38:06;;;;;;;28.33;26.33;;;8.10;90.70;;;;;;5035218;28;20176;-89
2023/10/15 10:40:51;;;;;;;27.07;25.20;;;8.40;91.00;;;;;;5036289;28;20184;-88
2023/10/15 10:43:23;;;;;;;23.77;22.07;;;8.60;91.30;;;;;;5035627;28;20172;-90
2023/10/15 10:45:53;;;;;;;24.53;23.00;;;8.60;91.20;;;;;;5034846;28;20200;-89
2023/10/15 10:48:38;;;;;;;26.77;24.87;;;8.80;91.00;;;;;;5036227;28;20214;-89
2023/10/15 10:51:13;;;;;;;30.20;27.80;;;9.00;90.80;;;;;;5035938;28;20165;-89
2023/10/15 10:53:56;;;;;;;26.77;24.73;;;9.10;90.00;;;;;;5035756;28;20230;-90
2023/10/15 10:56:22;;;;;;;27.27;25.00;;;9.30;89.60;;;;;;5035158;28;20640;-88
2023/10/15 10:58:52;;;;;;;21.83;20.03;;;9.30;89.50;;;;;;5037468;28;20263;-88
2023/10/15 11:01:17;;;;;;;17.70;16.20;;;9.20;89.40;;;;;;5036322;28;20200;-88
2023/10/15 11:03:44;;;;;;;18.70;17.27;;;9.20;89.10;;;;;;5037277;28;20551;-88
2023/10/15 11:06:10;;;;;;;25.37;23.47;;;9.00;88.80;;;;;;5035583;28;20683;-88
2023/10/15 11:08:35;;;;;;;28.27;25.77;;;9.00;89.20;;;;;;5035006;28;20231;-88
2023/10/15 11:11:02;;;;;;;27.23;24.90;;;9.00;88.80;;;;;;5036387;28;20173;-88
2023/10/15 11:13:28;;;;;;;21.27;19.10;;;8.90;89.20;;;;;;5034951;28;20172;-88
2023/10/15 11:15:53;;;;;;;24.27;21.83;;;8.80;88.90;;;;;;5035428;28;20619;-90
2023/10/15 11:18:23;;;;;;;28.43;26.17;;;8.90;89.40;;;;;;5036609;28;20221;-92
2023/10/15 11:20:50;;;;;;;31.73;29.47;;;8.80;90.00;;;;;;5034787;28;20187;-91
2023/10/15 11:23:16;;;;;;;28.63;26.30;;;8.80;90.20;;;;;;5034805;28;20165;-89
2023/10/15 11:25:42;;;;;;;18.70;17.27;;;9.00;90.60;;;;;;5034008;28;20552;-88
2023/10/15 11:28:10;;;;;;;18.27;16.63;;;9.20;90.40;;;;;;5033992;28;20173;-88
2023/10/15 11:30:36;;;;;;;25.17;23.20;;;9.30;90.30;;;;;;5034868;28;20169;-89
2023/10/15 11:33:07;;;;;;;25.73;23.60;;;9.50;90.20;;;;;;5034896;28;20183;-88
2023/10/15 11:35:33;;;;;;;25.10;23.20;;;9.80;90.40;;;;;;5033606;28;20711;-88
2023/10/15 11:38:05;;;;;;;19.53;17.73;;;9.80;89.70;;;;;;5033394;28;20254;-89
2023/10/15 11:40:30;;;;;;;18.80;17.20;;;10.00;87.90;;;;;;5033269;28;20227;-88
2023/10/15 11:42:56;;;;;;;28.30;25.90;;;10.00;87.70;;;;;;5033071;28;20675;-87
2023/10/15 11:45:30;;;;;;;28.87;26.47;;;10.30;88.50;;;;;;5034396;28;20258;-88
2023/10/15 11:47:56;;;;;;;31.27;28.43;;;10.30;88.30;;;;;;5034685;28;20157;-89
2023/10/15 11:50:25;;;;;;;21.13;19.23;;;10.30;88.60;;;;;;5033086;28;20180;-87
2023/10/15 11:52:53;;;;;;;23.23;21.00;;;10.10;86.60;;;;;;5033262;28;20200;-87
2023/10/15 11:55:20;;;;;;;23.97;21.77;;;10.20;87.00;;;;;;5033037;28;20546;-88
2023/10/15 11:57:53;;;;;;;22.17;19.30;;;9.70;84.30;;;;;;5032308;28;20173;-89
2023/10/15 12:00:23;;;;;;;19.77;18.00;;;9.70;85.20;;;;;;5033522;28;20192;-88
2023/10/15 12:02:50;;;;;;;20.47;18.30;;;9.50;86.30;;;;;;5034120;28;20200;-89
2023/10/15 12:05:15;;;;;;;19.10;17.57;;;9.50;86.50;;;;;;5032944;28;20668;-89
2023/10/15 12:07:42;;;;;;;20.50;18.50;;;9.60;87.30;;;;;;5033641;28;20406;-90
2023/10/15 12:10:14;;;;;;;20.93;19.13;;;9.50;87.50;;;;;;5032709;28;20263;-91
2023/10/15 12:12:43;;;;;;;21.80;19.57;;;9.50;87.60;;;;;;5033606;28;20703;-89
2023/10/15 12:15:09;;;;;;;20.73;19.10;;;9.40;86.40;;;;;;5034384;28;20628;-90
2023/10/15 12:17:35;;;;;;;21.53;19.43;;;9.70;86.50;;;;;;5032606;28;20184;-88
2023/10/15 12:20:06;;;;;;;19.50;17.77;;;9.40;84.70;;;;;;5054850;28;20173;-93
2023/10/15 12:22:36;;;;;;;21.63;19.77;;;9.30;85.60;;;;;;5055922;28;20260;-92
2023/10/15 12:25:01;;;;;;;18.03;16.67;;;9.50;86.40;;;;;;5054155;28;20203;-90
2023/10/15 12:27:30;;;;;;;19.77;17.70;;;9.50;86.60;;;;;;5055669;28;20228;-94
2023/10/15 12:29:56;;;;;;;18.10;16.80;;;9.70;86.70;;;;;;5053429;28;20231;-92
2023/10/15 12:32:22;;;;;;;22.07;17.33;;;9.80;86.50;;;;;;5050336;28;20176;-91
2023/10/15 12:34:48;;;;;;;18.27;16.70;;;9.70;85.80;;;;;;5051348;28;20197;-93
2023/10/15 12:37:14;;;;;;;19.03;16.70;;;9.70;86.40;;;;;;5046155;28;20177;-93
2023/10/15 12:39:45;;;;;;;18.73;17.10;;;9.60;86.10;;;;;;5042968;28;20179;-93
2023/10/15 12:42:11;;;;;;;21.20;17.47;;;9.80;86.80;;;;;;5043907;28;20200;-93
2023/10/15 12:44:40;;;;;;;17.67;15.80;;;9.80;86.20;;;;;;5037923;28;20223;-93
2023/10/15 12:47:08;;;;;;;17.23;15.60;;;10.10;86.20;;;;;;5037764;28;20184;-93
2023/10/15 12:49:35;;;;;;;19.43;15.63;;;10.40;85.60;;;;;;5038396;28;20188;-91
2023/10/15 12:52:04;;;;;;;23.23;21.17;;;10.80;86.60;;;;;;5052613;28;20161;-92
2023/10/15 12:54:30;;;;;;;26.60;24.00;;;11.00;87.20;;;;;;5052859;28;20200;-92
2023/10/15 12:56:58;;;;;;;25.00;22.80;;;10.70;84.80;;;;;;5053449;28;20219;-92
2023/10/15 12:59:24;;;;;;;26.50;23.73;;;10.80;85.10;;;;;;5058206;28;20244;-92
2023/10/15 13:01:50;;;;;;;28.63;24.60;;;10.60;84.50;;;;;;5058239;28;20200;-94